sensor_id;sensor_type;location;lat;lon;timestamp;pressure;altitude;pressure_sealevel;temperature;humidity
18323;BME280;9287;49.456;11.064;2023-02-05T00:01:52;100240.81;;;-1.27;100.00
18323;BME280;9287;49.456;11.064;2023-02-05T00:04:19;100249.44;;;-1.25;100.00
18323;BME280;9287;49.456;11.064;2023-02-05T00:06:47;100244.50;;;-1.28;100.00
18323;BME280;9287;49.456;11.064;2023-02-05T00:09:15;100245.78;;;-1.31;100.00
18323;BME280;9287;49.456;11.064;2023-02-05T00:11:43;100250.09;;;-1.30;100.00
18323;BME280;9287;49.456;11.064;2023-02-05T00:14:12;100246.59;;;-1.30;100.00
18323;BME280;9287;49.456;11.064;2023-02-05T00:16:40;100261.84;;;-1.31;100.00
18323;BME280;9287;49.456;11.064;2023-02-05T00:19:08;100247.03;;;-1.33;100.00
18323;BME280;9287;49.456;11.064;2023-02-05T00:21:35;100249.72;;;-1.33;100.00
18323;BME280;9287;49.456;11.064;2023-02-05T00:24:03;100242.09;;;-1.36;100.00
18323;BME280;9287;49.456;11.064;2023-02-05T00:26:31;100243.13;;;-1.37;100.00
18323;BME280;9287;49.456;11.064;2023-02-05T00:28:59;100240.47;;;-1.37;100.00
18323;BME280;9287;49.456;11.064;2023-02-05T00:31:28;100240.63;;;-1.32;100.00
18323;BME280;9287;49.456;11.064;2023-02-05T00:33:56;100228.09;;;-1.38;100.00
18323;BME280;9287;49.456;11.064;2023-02-05T00:36:24;100228.56;;;-1.42;100.00
18323;BME280;9287;49.456;11.064;2023-02-05T00:38:52;100220.22;;;-1.33;100.00
18323;BME280;9287;49.456;11.064;2023-02-05T00:41:20;100223.50;;;-1.31;100.00
18323;BME280;9287;49.456;11.064;2023-02-05T00:43:48;100218.19;;;-1.38;100.00
18323;BME280;9287;49.456;11.064;2023-02-05T00:46:16;100213.81;;;-1.32;100.00
18323;BME280;9287;49.456;11.064;2023-02-05T00:48:45;100220.31;;;-1.40;100.00
18323;BME280;9287;49.456;11.064;2023-02-05T00:51:12;100226.91;;;-1.43;100.00
18323;BME280;9287;49.456;11.064;2023-02-05T00:53:40;100230.19;;;-1.41;100.00
18323;BME280;9287;49.456;11.064;2023-02-05T00:56:08;100227.97;;;-1.44;100.00
18323;BME280;9287;49.456;11.064;2023-02-05T00:58:36;100227.34;;;-1.46;100.00
18323;BME280;9287;49.456;11.064;2023-02-05T01:01:04;100241.00;;;-1.54;100.00
18323;BME280;9287;49.456;11.064;2023-02-05T01:03:32;100239.81;;;-1.58;100.00
18323;BME280;9287;49.456;11.064;2023-02-05T01:06:01;100254.69;;;-1.62;100.00
18323;BME280;9287;49.456;11.064;2023-02-05T01:08:29;100256.06;;;-1.84;100.00
18323;BME280;9287;49.456;11.064;2023-02-05T01:10:57;100244.50;;;-1.78;100.00
18323;BME280;9287;49.456;11.064;2023-02-05T01:13:25;100250.13;;;-1.86;100.00
18323;BME280;9287;49.456;11.064;2023-02-05T01:15:52;100250.72;;;-1.84;100.00
18323;BME280;9287;49.456;11.064;2023-02-05T01:18:20;100251.28;;;-1.76;100.00
18323;BME280;9287;49.456;11.064;2023-02-05T01:20:48;100242.44;;;-1.76;100.00
18323;BME280;9287;49.456;11.064;2023-02-05T01:23:17;100240.19;;;-1.79;100.00
18323;BME280;9287;49.456;11.064;2023-02-05T01:25:44;100242.22;;;-1.74;100.00
18323;BME280;9287;49.456;11.064;2023-02-05T01:28:12;100243.47;;;-1.77;100.00
18323;BME280;9287;49.456;11.064;2023-02-05T01:30:40;100250.13;;;-1.86;100.00
18323;BME280;9287;49.456;11.064;2023-02-05T01:33:08;100241.03;;;-1.85;100.00
18323;BME280;9287;49.456;11.064;2023-02-05T01:35:35;100248.31;;;-1.92;100.00
18323;BME280;9287;49.456;11.064;2023-02-05T01:38:03;100240.44;;;-1.87;100.00
18323;BME280;9287;49.456;11.064;2023-02-05T01:40:32;100239.56;;;-1.81;100.00
18323;BME280;9287;49.456;11.064;2023-02-05T01:43:00;100238.78;;;-1.88;100.00
18323;BME280;9287;49.456;11.064;2023-02-05T01:45:47;100229.81;;;-2.00;100.00
18323;BME280;9287;49.456;11.064;2023-02-05T01:48:19;100219.69;;;-1.92;100.00
18323;BME280;9287;49.456;11.064;2023-02-05T01:50:51;100222.44;;;-2.05;100.00
18323;BME280;9287;49.456;11.064;2023-02-05T01:53:22;100225.31;;;-2.06;100.00
18323;BME280;9287;49.456;11.064;2023-02-05T01:55:55;100213.78;;;-2.07;100.00
18323;BME280;9287;49.456;11.064;2023-02-05T01:58:25;100212.53;;;-2.04;100.00
18323;BME280;9287;49.456;11.064;2023-02-05T02:00:55;100205.72;;;-2.32;100.00
18323;BME280;9287;49.456;11.064;2023-02-05T02:03:24;100200.66;;;-2.08;100.00
18323;BME280;9287;49.456;11.064;2023-02-05T02:05:53;100202.94;;;-2.19;100.00
18323;BME280;9287;49.456;11.064;2023-02-05T02:08:21;100206.44;;;-2.12;100.00
18323;BME280;9287;49.456;11.064;2023-02-05T02:10:50;100207.59;;;-2.07;100.00
18323;BME280;9287;49.456;11.064;2023-02-05T02:13:21;100202.25;;;-2.07;100.00
18323;BME280;9287;49.456;11.064;2023-02-05T02:15:50;100203.22;;;-2.27;100.00
18323;BME280;9287;49.456;11.064;2023-02-05T02:18:18;100197.41;;;-2.24;100.00
18323;BME280;9287;49.456;11.064;2023-02-05T02:24:17;100188.34;;;-2.23;100.00
18323;BME280;9287;49.456;11.064;2023-02-05T02:27:05;100179.72;;;-2.25;100.00
18323;BME280;9287;49.456;11.064;2023-02-05T02:29:47;100169.84;;;-2.24;100.00
18323;BME280;9287;49.456;11.064;2023-02-05T02:32:23;100163.66;;;-2.25;100.00
18323;BME280;9287;49.456;11.064;2023-02-05T02:35:01;100155.06;;;-2.27;100.00
18323;BME280;9287;49.456;11.064;2023-02-05T02:37:34;100149.63;;;-2.20;100.00
18323;BME280;9287;49.456;11.064;2023-02-05T02:40:08;100160.72;;;-2.17;100.00
18323;BME280;9287;49.456;11.064;2023-02-05T02:42:41;100152.91;;;-2.18;100.00
18323;BME280;9287;49.456;11.064;2023-02-05T02:45:16;100158.38;;;-2.31;100.00
18323;BME280;9287;49.456;11.064;2023-02-05T02:47:48;100156.22;;;-2.23;100.00
18323;BME280;9287;49.456;11.064;2023-02-05T02:50:21;100157.13;;;-2.29;100.00
18323;BME280;9287;49.456;11.064;2023-02-05T02:52:51;100168.94;;;-2.12;100.00
18323;BME280;9287;49.456;11.064;2023-02-05T02:55:21;100171.09;;;-2.27;100.00
18323;BME280;9287;49.456;11.064;2023-02-05T02:57:50;100162.09;;;-2.39;100.00
18323;BME280;9287;49.456;11.064;2023-02-05T03:00:23;100151.59;;;-2.34;100.00
18323;BME280;9287;49.456;11.064;2023-02-05T03:02:55;100164.16;;;-2.41;100.00
18323;BME280;9287;49.456;11.064;2023-02-05T03:05:26;100162.38;;;-2.47;100.00
18323;BME280;9287;49.456;11.064;2023-02-05T03:08:00;100165.06;;;-2.47;100.00
18323;BME280;9287;49.456;11.064;2023-02-05T03:10:35;100170.84;;;-2.57;100.00
18323;BME280;9287;49.456;11.064;2023-02-05T03:13:06;100172.91;;;-2.59;100.00
18323;BME280;9287;49.456;11.064;2023-02-05T03:15:36;100166.72;;;-2.53;100.00
18323;BME280;9287;49.456;11.064;2023-02-05T03:18:04;100161.75;;;-2.49;100.00
18323;BME280;9287;49.456;11.064;2023-02-05T03:20:34;100163.13;;;-2.40;100.00
18323;BME280;9287;49.456;11.064;2023-02-05T03:23:05;100167.94;;;-2.49;100.00
18323;BME280;9287;49.456;11.064;2023-02-05T03:25:33;100155.09;;;-2.40;100.00
18323;BME280;9287;49.456;11.064;2023-02-05T03:28:01;100153.53;;;-2.48;100.00
18323;BME280;9287;49.456;11.064;2023-02-05T03:30:38;100146.06;;;-2.39;100.00
18323;BME280;9287;49.456;11.064;2023-02-05T03:33:22;100139.22;;;-2.35;100.00
18323;BME280;9287;49.456;11.064;2023-02-05T03:35:58;100142.34;;;-2.38;100.00
18323;BME280;9287;49.456;11.064;2023-02-05T03:38:38;100138.19;;;-2.34;100.00
18323;BME280;9287;49.456;11.064;2023-02-05T03:41:16;100132.81;;;-2.27;100.00
18323;BME280;9287;49.456;11.064;2023-02-05T03:43:50;100136.03;;;-2.19;100.00
18323;BME280;9287;49.456;11.064;2023-02-05T03:46:29;100128.66;;;-2.23;100.00
18323;BME280;9287;49.456;11.064;2023-02-05T03:49:05;100133.09;;;-2.42;100.00
18323;BME280;9287;49.456;11.064;2023-02-05T03:51:40;100127.53;;;-2.40;100.00
18323;BME280;9287;49.456;11.064;2023-02-05T03:54:16;100127.91;;;-2.37;100.00
18323;BME280;9287;49.456;11.064;2023-02-05T03:56:50;100111.13;;;-2.44;100.00
18323;BME280;9287;49.456;11.064;2023-02-05T03:59:22;100121.88;;;-2.57;100.00
18323;BME280;9287;49.456;11.064;2023-02-05T04:01:52;100122.47;;;-2.55;100.00
18323;BME280;9287;49.456;11.064;2023-02-05T04:04:21;100118.53;;;-2.46;100.00
18323;BME280;9287;49.456;11.064;2023-02-05T04:06:50;100121.81;;;-2.44;100.00
18323;BME280;9287;49.456;11.064;2023-02-05T04:09:18;100131.53;;;-2.56;100.00
18323;BME280;9287;49.456;11.064;2023-02-05T04:11:46;100129.03;;;-2.51;100.00
18323;BME280;9287;49.456;11.064;2023-02-05T04:14:14;100119.38;;;-2.52;100.00
18323;BME280;9287;49.456;11.064;2023-02-05T04:16:42;100108.25;;;-2.49;100.00
18323;BME280;9287;49.456;11.064;2023-02-05T04:19:11;100113.00;;;-2.51;100.00
18323;BME280;9287;49.456;11.064;2023-02-05T04:21:39;100110.94;;;-2.49;100.00
18323;BME280;9287;49.456;11.064;2023-02-05T04:24:06;100113.59;;;-2.49;100.00
18323;BME280;9287;49.456;11.064;2023-02-05T04:26:34;100117.75;;;-2.53;100.00
18323;BME280;9287;49.456;11.064;2023-02-05T04:29:02;100111.78;;;-2.55;100.00
18323;BME280;9287;49.456;11.064;2023-02-05T04:31:30;100110.31;;;-2.51;100.00
18323;BME280;9287;49.456;11.064;2023-02-05T04:33:58;100107.88;;;-2.59;100.00
18323;BME280;9287;49.456;11.064;2023-02-05T04:36:27;100110.84;;;-2.67;100.00
18323;BME280;9287;49.456;11.064;2023-02-05T04:38:54;100119.47;;;-2.65;100.00
18323;BME280;9287;49.456;11.064;2023-02-05T04:41:22;100111.03;;;-2.62;100.00
18323;BME280;9287;49.456;11.064;2023-02-05T04:43:50;100127.69;;;-2.67;100.00
18323;BME280;9287;49.456;11.064;2023-02-05T04:46:17;100137.56;;;-2.67;100.00
18323;BME280;9287;49.456;11.064;2023-02-05T04:48:45;100143.34;;;-2.70;100.00
18323;BME280;9287;49.456;11.064;2023-02-05T04:51:13;100151.78;;;-2.73;100.00
18323;BME280;9287;49.456;11.064;2023-02-05T04:53:43;100138.09;;;-2.90;100.00
18323;BME280;9287;49.456;11.064;2023-02-05T04:56:12;100134.38;;;-2.83;100.00
18323;BME280;9287;49.456;11.064;2023-02-05T04:58:40;100146.66;;;-2.75;100.00
18323;BME280;9287;49.456;11.064;2023-02-05T05:01:11;100136.00;;;-2.82;100.00
18323;BME280;9287;49.456;11.064;2023-02-05T05:03:40;100126.13;;;-2.81;100.00
18323;BME280;9287;49.456;11.064;2023-02-05T05:06:08;100131.09;;;-2.85;100.00
18323;BME280;9287;49.456;11.064;2023-02-05T05:08:36;100135.63;;;-2.92;100.00
18323;BME280;9287;49.456;11.064;2023-02-05T05:11:10;100130.47;;;-2.87;100.00
18323;BME280;9287;49.456;11.064;2023-02-05T05:13:38;100134.44;;;-2.96;100.00
18323;BME280;9287;49.456;11.064;2023-02-05T05:16:06;100139.31;;;-2.93;100.00
18323;BME280;9287;49.456;11.064;2023-02-05T05:18:34;100137.31;;;-3.04;100.00
18323;BME280;9287;49.456;11.064;2023-02-05T05:21:09;100136.91;;;-3.01;100.00
18323;BME280;9287;49.456;11.064;2023-02-05T05:23:37;100133.81;;;-2.98;100.00
18323;BME280;9287;49.456;11.064;2023-02-05T05:26:06;100136.97;;;-3.14;100.00
18323;BME280;9287;49.456;11.064;2023-02-05T05:28:35;100131.78;;;-3.09;100.00
18323;BME280;9287;49.456;11.064;2023-02-05T05:31:07;100128.69;;;-3.06;100.00
18323;BME280;9287;49.456;11.064;2023-02-05T05:33:35;100131.63;;;-3.14;100.00
18323;BME280;9287;49.456;11.064;2023-02-05T05:36:05;100132.81;;;-3.10;100.00
18323;BME280;9287;49.456;11.064;2023-02-05T05:38:33;100132.44;;;-3.20;100.00
18323;BME280;9287;49.456;11.064;2023-02-05T05:41:01;100140.66;;;-3.15;100.00
18323;BME280;9287;49.456;11.064;2023-02-05T05:43:48;100143.56;;;-3.23;100.00
18323;BME280;9287;49.456;11.064;2023-02-05T05:46:18;100143.16;;;-3.27;100.00
18323;BME280;9287;49.456;11.064;2023-02-05T05:48:49;100136.19;;;-3.34;100.00
18323;BME280;9287;49.456;11.064;2023-02-05T05:51:18;100122.59;;;-3.26;100.00
18323;BME280;9287;49.456;11.064;2023-02-05T05:53:46;100114.63;;;-3.39;100.00
18323;BME280;9287;49.456;11.064;2023-02-05T05:56:15;100113.22;;;-3.48;100.00
18323;BME280;9287;49.456;11.064;2023-02-05T05:58:44;100119.97;;;-3.39;100.00
18323;BME280;9287;49.456;11.064;2023-02-05T06:01:14;100125.47;;;-3.28;100.00
18323;BME280;9287;49.456;11.064;2023-02-05T06:03:43;100133.28;;;-3.20;100.00
18323;BME280;9287;49.456;11.064;2023-02-05T06:06:11;100133.28;;;-3.26;100.00
18323;BME280;9287;49.456;11.064;2023-02-05T06:08:39;100137.44;;;-3.30;100.00
18323;BME280;9287;49.456;11.064;2023-02-05T06:11:07;100138.63;;;-3.26;100.00
18323;BME280;9287;49.456;11.064;2023-02-05T06:13:34;100130.81;;;-3.21;100.00
18323;BME280;9287;49.456;11.064;2023-02-05T06:16:02;100125.94;;;-3.44;100.00
18323;BME280;9287;49.456;11.064;2023-02-05T06:18:32;100127.94;;;-3.26;100.00
18323;BME280;9287;49.456;11.064;2023-02-05T06:21:00;100120.13;;;-3.21;100.00
18323;BME280;9287;49.456;11.064;2023-02-05T06:23:29;100130.59;;;-3.26;100.00
18323;BME280;9287;49.456;11.064;2023-02-05T06:25:56;100126.75;;;-3.30;100.00
18323;BME280;9287;49.456;11.064;2023-02-05T06:28:24;100121.81;;;-3.33;100.00
18323;BME280;9287;49.456;11.064;2023-02-05T06:30:52;100127.31;;;-3.28;100.00
18323;BME280;9287;49.456;11.064;2023-02-05T06:33:19;100122.44;;;-3.31;100.00
18323;BME280;9287;49.456;11.064;2023-02-05T06:35:48;100107.47;;;-3.59;100.00
18323;BME280;9287;49.456;11.064;2023-02-05T06:38:16;100116.06;;;-3.43;100.00
18323;BME280;9287;49.456;11.064;2023-02-05T06:40:44;100119.34;;;-3.41;100.00
18323;BME280;9287;49.456;11.064;2023-02-05T06:43:13;100116.06;;;-3.30;100.00
18323;BME280;9287;49.456;11.064;2023-02-05T06:45:40;100111.34;;;-3.41;100.00
18323;BME280;9287;49.456;11.064;2023-02-05T06:48:08;100108.63;;;-3.28;100.00
18323;BME280;9287;49.456;11.064;2023-02-05T06:50:36;100104.56;;;-3.37;100.00
18323;BME280;9287;49.456;11.064;2023-02-05T06:53:05;100109.91;;;-3.37;100.00
18323;BME280;9287;49.456;11.064;2023-02-05T06:55:32;100111.53;;;-3.36;100.00
18323;BME280;9287;49.456;11.064;2023-02-05T06:58:00;100106.97;;;-3.23;100.00
18323;BME280;9287;49.456;11.064;2023-02-05T07:00:28;100117.22;;;-3.13;100.00
18323;BME280;9287;49.456;11.064;2023-02-05T07:02:58;100112.31;;;-3.16;100.00
18323;BME280;9287;49.456;11.064;2023-02-05T07:05:25;100121.75;;;-3.20;100.00
18323;BME280;9287;49.456;11.064;2023-02-05T07:07:53;100131.63;;;-3.27;100.00
18323;BME280;9287;49.456;11.064;2023-02-05T07:10:22;100131.63;;;-3.14;100.00
18323;BME280;9287;49.456;11.064;2023-02-05T07:12:50;100139.06;;;-3.29;100.00
18323;BME280;9287;49.456;11.064;2023-02-05T07:15:18;100139.44;;;-3.12;100.00
18323;BME280;9287;49.456;11.064;2023-02-05T07:17:45;100134.47;;;-3.09;100.00
18323;BME280;9287;49.456;11.064;2023-02-05T07:20:13;100128.28;;;-3.03;100.00
18323;BME280;9287;49.456;11.064;2023-02-05T07:22:41;100143.03;;;-2.94;100.00
18323;BME280;9287;49.456;11.064;2023-02-05T07:25:09;100137.88;;;-2.89;100.00
18323;BME280;9287;49.456;11.064;2023-02-05T07:27:38;100124.56;;;-3.02;100.00
18323;BME280;9287;49.456;11.064;2023-02-05T07:30:07;100115.59;;;-3.14;100.00
18323;BME280;9287;49.456;11.064;2023-02-05T07:32:35;100107.03;;;-2.91;100.00
18323;BME280;9287;49.456;11.064;2023-02-05T07:35:03;100116.19;;;-2.67;100.00
18323;BME280;9287;49.456;11.064;2023-02-05T07:37:30;100103.41;;;-2.65;100.00
18323;BME280;9287;49.456;11.064;2023-02-05T07:39:58;100096.44;;;-2.66;100.00
18323;BME280;9287;49.456;11.064;2023-02-05T07:42:26;100097.94;;;-2.46;100.00
18323;BME280;9287;49.456;11.064;2023-02-05T07:44:58;100099.19;;;-2.48;100.00
18323;BME280;9287;49.456;11.064;2023-02-05T07:47:25;100082.34;;;-2.55;100.00
18323;BME280;9287;49.456;11.064;2023-02-05T07:49:53;100087.59;;;-2.42;100.00
18323;BME280;9287;49.456;11.064;2023-02-05T07:52:21;100073.81;;;-2.39;100.00
18323;BME280;9287;49.456;11.064;2023-02-05T07:54:49;100077.38;;;-2.45;100.00
18323;BME280;9287;49.456;11.064;2023-02-05T07:57:16;100069.06;;;-2.37;100.00
18323;BME280;9287;49.456;11.064;2023-02-05T07:59:44;100070.22;;;-2.26;100.00
18323;BME280;9287;49.456;11.064;2023-02-05T08:02:13;100071.31;;;-2.09;100.00
18323;BME280;9287;49.456;11.064;2023-02-05T08:04:41;100064.69;;;-2.06;100.00
18323;BME280;9287;49.456;11.064;2023-02-05T08:07:10;100071.31;;;-1.66;100.00
18323;BME280;9287;49.456;11.064;2023-02-05T08:09:39;100070.00;;;-1.57;100.00
18323;BME280;9287;49.456;11.064;2023-02-05T08:12:07;100060.66;;;-1.36;100.00
18323;BME280;9287;49.456;11.064;2023-02-05T08:14:35;100056.44;;;-1.25;100.00
18323;BME280;9287;49.456;11.064;2023-02-05T08:17:03;100056.25;;;-1.12;100.00
18323;BME280;9287;49.456;11.064;2023-02-05T08:19:33;100047.91;;;-1.04;100.00
18323;BME280;9287;49.456;11.064;2023-02-05T08:22:01;100044.25;;;-0.80;100.00
18323;BME280;9287;49.456;11.064;2023-02-05T08:24:30;100038.97;;;-0.56;100.00
18323;BME280;9287;49.456;11.064;2023-02-05T08:26:57;100042.75;;;-0.34;100.00
18323;BME280;9287;49.456;11.064;2023-02-05T08:29:25;100036.00;;;0.22;100.00
18323;BME280;9287;49.456;11.064;2023-02-05T08:31:53;100039.94;;;0.54;100.00
18323;BME280;9287;49.456;11.064;2023-02-05T08:34:21;100036.06;;;1.30;100.00
18323;BME280;9287;49.456;11.064;2023-02-05T08:36:50;100036.25;;;2.46;96.47
18323;BME280;9287;49.456;11.064;2023-02-05T08:39:18;100031.59;;;2.20;87.37
18323;BME280;9287;49.456;11.064;2023-02-05T08:41:45;100032.13;;;2.60;84.93
18323;BME280;9287;49.456;11.064;2023-02-05T08:44:13;100042.72;;;1.90;86.76
18323;BME280;9287;49.456;11.064;2023-02-05T08:46:41;100051.50;;;1.35;89.29
18323;BME280;9287;49.456;11.064;2023-02-05T08:49:16;100058.78;;;1.23;90.71
18323;BME280;9287;49.456;11.064;2023-02-05T08:51:44;100054.56;;;0.87;96.37
18323;BME280;9287;49.456;11.064;2023-02-05T08:54:14;100043.09;;;0.63;98.42
18323;BME280;9287;49.456;11.064;2023-02-05T08:56:43;100040.81;;;0.72;96.34
18323;BME280;9287;49.456;11.064;2023-02-05T08:59:11;100038.72;;;0.85;95.75
18323;BME280;9287;49.456;11.064;2023-02-05T09:01:40;100041.06;;;0.82;96.84
18323;BME280;9287;49.456;11.064;2023-02-05T09:04:11;100037.97;;;0.90;95.32
18323;BME280;9287;49.456;11.064;2023-02-05T09:06:39;100026.31;;;0.73;94.83
18323;BME280;9287;49.456;11.064;2023-02-05T09:09:07;100021.50;;;0.46;100.00
18323;BME280;9287;49.456;11.064;2023-02-05T09:11:37;100021.63;;;0.80;98.45
18323;BME280;9287;49.456;11.064;2023-02-05T09:14:05;100005.63;;;0.33;100.00
18323;BME280;9287;49.456;11.064;2023-02-05T09:16:33;100002.34;;;0.31;100.00
18323;BME280;9287;49.456;11.064;2023-02-05T09:19:01;99995.94;;;0.32;100.00
18323;BME280;9287;49.456;11.064;2023-02-05T09:21:29;99992.34;;;0.15;100.00
18323;BME280;9287;49.456;11.064;2023-02-05T09:23:56;99991.88;;;0.58;100.00
18323;BME280;9287;49.456;11.064;2023-02-05T09:26:24;99992.50;;;0.48;100.00
18323;BME280;9287;49.456;11.064;2023-02-05T09:28:53;99987.78;;;0.55;100.00
18323;BME280;9287;49.456;11.064;2023-02-05T09:31:21;99987.66;;;0.62;100.00
18323;BME280;9287;49.456;11.064;2023-02-05T09:33:49;99989.16;;;0.69;100.00
18323;BME280;9287;49.456;11.064;2023-02-05T09:36:18;99979.72;;;0.55;100.00
18323;BME280;9287;49.456;11.064;2023-02-05T09:38:47;99985.88;;;0.27;100.00
18323;BME280;9287;49.456;11.064;2023-02-05T09:41:21;99980.16;;;0.24;100.00
18323;BME280;9287;49.456;11.064;2023-02-05T09:43:54;99980.03;;;0.30;100.00
18323;BME280;9287;49.456;11.064;2023-02-05T09:46:29;99980.00;;;0.42;100.00
18323;BME280;9287;49.456;11.064;2023-02-05T09:49:02;99973.84;;;0.30;100.00
18323;BME280;9287;49.456;11.064;2023-02-05T09:51:36;99974.75;;;0.47;100.00
18323;BME280;9287;49.456;11.064;2023-02-05T09:54:14;99969.84;;;0.44;100.00
18323;BME280;9287;49.456;11.064;2023-02-05T09:56:45;99961.38;;;0.52;100.00
18323;BME280;9287;49.456;11.064;2023-02-05T09:59:16;99957.81;;;0.35;100.00
18323;BME280;9287;49.456;11.064;2023-02-05T10:01:50;99965.47;;;0.15;100.00
18323;BME280;9287;49.456;11.064;2023-02-05T10:04:18;99965.28;;;0.45;100.00
18323;BME280;9287;49.456;11.064;2023-02-05T10:06:56;99971.09;;;0.53;100.00
18323;BME280;9287;49.456;11.064;2023-02-05T10:12:40;99956.47;;;0.61;100.00
18323;BME280;9287;49.456;11.064;2023-02-05T10:15:24;99964.94;;;0.81;100.00
18323;BME280;9287;49.456;11.064;2023-02-05T10:18:06;99953.81;;;0.78;100.00
18323;BME280;9287;49.456;11.064;2023-02-05T10:20:50;99959.03;;;0.67;100.00
18323;BME280;9287;49.456;11.064;2023-02-05T10:23:31;99949.09;;;0.68;100.00
18323;BME280;9287;49.456;11.064;2023-02-05T10:26:08;99939.78;;;0.76;100.00
18323;BME280;9287;49.456;11.064;2023-02-05T10:29:02;99936.81;;;0.60;100.00
18323;BME280;9287;49.456;11.064;2023-02-05T10:31:39;99937.97;;;0.64;100.00
18323;BME280;9287;49.456;11.064;2023-02-05T10:34:17;99924.63;;;0.69;100.00
18323;BME280;9287;49.456;11.064;2023-02-05T10:36:49;99929.72;;;0.83;100.00
18323;BME280;9287;49.456;11.064;2023-02-05T10:39:18;99915.53;;;0.87;100.00
18323;BME280;9287;49.456;11.064;2023-02-05T10:41:50;99919.97;;;1.10;100.00
18323;BME280;9287;49.456;11.064;2023-02-05T10:44:23;99905.78;;;0.98;100.00
18323;BME280;9287;49.456;11.064;2023-02-05T10:46:57;99898.44;;;1.27;100.00
18323;BME280;9287;49.456;11.064;2023-02-05T10:49:39;99899.75;;;1.24;100.00
18323;BME280;9287;49.456;11.064;2023-02-05T10:52:11;99895.19;;;1.08;100.00
18323;BME280;9287;49.456;11.064;2023-02-05T10:54:39;99898.94;;;1.07;100.00
18323;BME280;9287;49.456;11.064;2023-02-05T10:57:12;99891.44;;;1.09;100.00
18323;BME280;9287;49.456;11.064;2023-02-05T10:59:48;99893.88;;;1.27;100.00
18323;BME280;9287;49.456;11.064;2023-02-05T11:02:20;99888.31;;;1.51;100.00
18323;BME280;9287;49.456;11.064;2023-02-05T11:04:52;99889.59;;;1.65;100.00
18323;BME280;9287;49.456;11.064;2023-02-05T11:07:24;99888.31;;;1.51;100.00
18323;BME280;9287;49.456;11.064;2023-02-05T11:09:52;99883.56;;;1.58;100.00
18323;BME280;9287;49.456;11.064;2023-02-05T11:12:25;99875.31;;;1.64;100.00
18323;BME280;9287;49.456;11.064;2023-02-05T11:14:56;99870.63;;;1.55;100.00
18323;BME280;9287;49.456;11.064;2023-02-05T11:17:30;99871.59;;;1.49;100.00
18323;BME280;9287;49.456;11.064;2023-02-05T11:20:00;99865.91;;;1.84;100.00
18323;BME280;9287;49.456;11.064;2023-02-05T11:22:31;99860.66;;;1.55;100.00
18323;BME280;9287;49.456;11.064;2023-02-05T11:25:05;99860.56;;;1.67;100.00
18323;BME280;9287;49.456;11.064;2023-02-05T11:27:33;99865.84;;;1.62;100.00
18323;BME280;9287;49.456;11.064;2023-02-05T11:30:17;99865.09;;;1.83;100.00
18323;BME280;9287;49.456;11.064;2023-02-05T11:33:21;99866.72;;;1.84;100.00
18323;BME280;9287;49.456;11.064;2023-02-05T11:35:53;99871.22;;;2.00;100.00
18323;BME280;9287;49.456;11.064;2023-02-05T11:38:29;99880.19;;;2.06;100.00
18323;BME280;9287;49.456;11.064;2023-02-05T11:40:59;99887.28;;;1.90;100.00
18323;BME280;9287;49.456;11.064;2023-02-05T11:43:30;99884.78;;;2.05;100.00
18323;BME280;9287;49.456;11.064;2023-02-05T11:46:01;99883.44;;;2.08;99.68
18323;BME280;9287;49.456;11.064;2023-02-05T11:48:37;99885.13;;;1.92;100.00
18323;BME280;9287;49.456;11.064;2023-02-05T11:51:09;99880.38;;;1.99;100.00
18323;BME280;9287;49.456;11.064;2023-02-05T11:53:47;99873.69;;;2.02;100.00
18323;BME280;9287;49.456;11.064;2023-02-05T11:56:20;99877.19;;;2.24;99.60
18323;BME280;9287;49.456;11.064;2023-02-05T11:58:58;99869.03;;;2.19;99.77
18323;BME280;9287;49.456;11.064;2023-02-05T12:01:29;99866.59;;;2.18;100.00
18323;BME280;9287;49.456;11.064;2023-02-05T12:04:09;99861.19;;;2.18;100.00
18323;BME280;9287;49.456;11.064;2023-02-05T12:06:45;99854.28;;;2.27;100.00
18323;BME280;9287;49.456;11.064;2023-02-05T12:09:19;99853.78;;;2.30;98.41
18323;BME280;9287;49.456;11.064;2023-02-05T12:11:56;99861.19;;;2.18;100.00
18323;BME280;9287;49.456;11.064;2023-02-05T12:14:37;99861.19;;;2.18;98.04
18323;BME280;9287;49.456;11.064;2023-02-05T12:20:05;99834.63;;;2.04;98.72
18323;BME280;9287;49.456;11.064;2023-02-05T12:22:53;99836.19;;;2.00;100.00
18323;BME280;9287;49.456;11.064;2023-02-05T12:25:26;99827.31;;;2.27;100.00
18323;BME280;9287;49.456;11.064;2023-02-05T12:28:16;99821.94;;;2.27;98.01
18323;BME280;9287;49.456;11.064;2023-02-05T12:31:04;99810.88;;;2.50;96.83
18323;BME280;9287;49.456;11.064;2023-02-05T12:33:47;99811.69;;;2.24;96.94
18323;BME280;9287;49.456;11.064;2023-02-05T12:36:33;99804.53;;;2.13;98.80
18323;BME280;9287;49.456;11.064;2023-02-05T12:39:14;99799.88;;;2.30;98.21
18323;BME280;9287;49.456;11.064;2023-02-05T12:41:52;99786.94;;;2.32;98.51
18323;BME280;9287;49.456;11.064;2023-02-05T12:44:32;99784.41;;;2.47;96.92
18323;BME280;9287;49.456;11.064;2023-02-05T12:47:14;99780.13;;;2.51;95.35
18323;BME280;9287;49.456;11.064;2023-02-05T12:49:56;99785.78;;;2.82;94.86
18323;BME280;9287;49.456;11.064;2023-02-05T12:52:40;99779.19;;;2.67;94.14
18323;BME280;9287;49.456;11.064;2023-02-05T12:55:21;99779.44;;;2.98;92.71
18323;BME280;9287;49.456;11.064;2023-02-05T12:57:55;99778.94;;;3.48;91.30
18323;BME280;9287;49.456;11.064;2023-02-05T13:00:29;99769.66;;;3.86;86.49
18323;BME280;9287;49.456;11.064;2023-02-05T13:03:05;99774.06;;;4.12;83.62
18323;BME280;9287;49.456;11.064;2023-02-05T13:05:37;99779.81;;;3.64;85.12
18323;BME280;9287;49.456;11.064;2023-02-05T13:08:13;99784.75;;;3.25;87.19
18323;BME280;9287;49.456;11.064;2023-02-05T13:10:49;99780.34;;;3.56;86.94
18323;BME280;9287;49.456;11.064;2023-02-05T13:13:23;99782.03;;;3.72;85.16
18323;BME280;9287;49.456;11.064;2023-02-05T13:15:59;99786.22;;;3.42;85.96
18323;BME280;9287;49.456;11.064;2023-02-05T13:18:30;99786.09;;;3.22;87.73